Time;durP1;ratioP1;P1;durP2;ratioP2;P2;SDS_P1;SDS_P2;PMS_P1;PMS_P2;Temp;Humidity;BMP_temperature;BMP_pressure;BME280_temperature;BME280_humidity;BME280_pressure;Samples;Min_cycle;Max_cycle;Signal;HPM_P1;HPM_P2
2021/04/26 00:01:35;;;;;;;4.78;3.55;;;;;;;2.37;100.00;100365.06;2578767;55;20645;-72
2021/04/26 00:04:03;;;;;;;5.87;3.87;;;;;;;2.38;100.00;100376.47;2578710;55;20125;-69
2021/04/26 00:06:30;;;;;;;6.00;3.85;;;;;;;2.42;100.00;100374.56;2579014;55;20160;-68
2021/04/26 00:08:57;;;;;;;5.25;4.15;;;;;;;2.40;100.00;100379.87;2578702;55;20131;-72
2021/04/26 00:11:26;;;;;;;4.95;3.40;;;;;;;2.44;100.00;100380.59;2578655;55;20160;-69
2021/04/26 00:13:53;;;;;;;4.07;3.00;;;;;;;2.43;100.00;100374.47;2578801;55;20135;-72
2021/04/26 00:16:20;;;;;;;6.05;2.97;;;;;;;2.43;100.00;100376.25;2578688;55;20161;-72
2021/04/26 00:18:47;;;;;;;4.35;2.33;;;;;;;2.44;100.00;100385.87;2578663;55;20106;-72
2021/04/26 00:21:15;;;;;;;4.72;2.62;;;;;;;2.40;100.00;100381.66;2578622;55;20180;-72
2021/04/26 00:23:42;;;;;;;3.25;2.30;;;;;;;2.39;100.00;100385.22;2578820;55;20117;-68
2021/04/26 00:26:10;;;;;;;4.03;2.03;;;;;;;2.42;100.00;100385.94;2578641;55;20176;-69
2021/04/26 00:28:41;;;;;;;3.47;2.10;;;;;;;2.41;100.00;100384.22;2578601;55;20143;-72
2021/04/26 00:31:08;;;;;;;2.60;1.90;;;;;;;2.41;100.00;100381.59;2578655;55;20670;-69
2021/04/26 00:33:36;;;;;;;3.85;2.25;;;;;;;2.40;100.00;100374.62;2578604;55;20125;-68
2021/04/26 00:36:03;;;;;;;3.67;2.33;;;;;;;2.38;100.00;100371.22;2578724;55;20131;-68
2021/04/26 00:38:31;;;;;;;3.35;2.75;;;;;;;2.41;100.00;100386.84;2578803;55;20127;-72
2021/04/26 00:40:58;;;;;;;4.65;3.03;;;;;;;2.39;100.00;100378.19;2578744;55;20187;-68
2021/04/26 00:43:25;;;;;;;5.18;2.95;;;;;;;2.40;100.00;100373.75;2578696;55;20145;-71
2021/04/26 00:45:55;;;;;;;5.72;3.50;;;;;;;2.36;100.00;100371.28;2578621;55;20125;-72
2021/04/26 00:48:22;;;;;;;5.35;3.55;;;;;;;2.36;100.00;100376.53;2578821;55;20741;-71
2021/04/26 00:50:50;;;;;;;4.43;3.10;;;;;;;2.36;100.00;100373.91;2578823;55;20136;-69
2021/04/26 00:53:18;;;;;;;6.32;3.37;;;;;;;2.38;100.00;100384.38;2578537;55;20150;-69
2021/04/26 00:55:47;;;;;;;6.80;3.62;;;;;;;2.39;100.00;100382.56;2578659;55;20117;-68
2021/04/26 00:58:15;;;;;;;7.10;4.22;;;;;;;2.35;100.00;100388.00;2578605;55;20123;-71
2021/04/26 01:00:43;;;;;;;5.82;4.20;;;;;;;2.36;100.00;100384.44;2578559;55;20121;-69
2021/04/26 01:03:12;;;;;;;6.07;3.58;;;;;;;2.34;100.00;100375.75;2578620;55;20633;-71
2021/04/26 01:05:40;;;;;;;4.40;3.33;;;;;;;2.31;100.00;100375.91;2578478;55;20109;-68
2021/04/26 01:08:07;;;;;;;4.57;3.00;;;;;;;2.28;100.00;100381.28;2578268;55;20114;-72
2021/04/26 01:10:38;;;;;;;5.43;2.90;;;;;;;2.26;100.00;100387.56;2573480;55;20135;-68
2021/04/26 01:13:28;;;;;;;5.15;3.00;;;;;;;2.33;100.00;100384.59;2573286;55;20135;-68
2021/04/26 01:16:06;;;;;;;4.32;2.65;;;;;;;2.30;100.00;100379.44;2573562;55;20140;-68
2021/04/26 01:18:43;;;;;;;5.22;2.92;;;;;;;2.25;100.00;100380.56;2573349;55;20604;-72
2021/04/26 01:21:44;;;;;;;4.60;2.92;;;;;;;2.27;100.00;100389.28;2573271;55;20117;-68
2021/04/26 01:24:35;;;;;;;4.00;3.05;;;;;;;2.26;100.00;100382.31;2573346;55;20136;-68
2021/04/26 01:27:09;;;;;;;3.70;3.08;;;;;;;2.26;100.00;100380.50;2573391;55;20121;-69
2021/04/26 01:30:05;;;;;;;5.07;2.97;;;;;;;2.25;100.00;100389.34;2573232;55;20558;-69
2021/04/26 01:32:40;;;;;;;4.30;3.00;;;;;;;2.20;100.00;100375.53;2573451;55;20174;-72
2021/04/26 01:35:12;;;;;;;4.07;3.17;;;;;;;2.18;100.00;100374.75;2573231;55;20125;-69
2021/04/26 01:37:41;;;;;;;5.37;3.37;;;;;;;2.17;100.00;100378.31;2573392;55;20135;-68
2021/04/26 01:40:12;;;;;;;5.97;2.83;;;;;;;2.19;100.00;100379.06;2573199;55;20136;-71
2021/04/26 01:42:43;;;;;;;3.47;2.63;;;;;;;2.18;100.00;100374.75;2573321;55;20131;-69
2021/04/26 01:45:16;;;;;;;4.07;2.60;;;;;;;2.17;100.00;100373.03;2573043;55;20133;-72
2021/04/26 01:47:46;;;;;;;4.50;3.08;;;;;;;2.17;100.00;100376.53;2573256;55;20118;-72
2021/04/26 01:50:15;;;;;;;4.03;3.12;;;;;;;2.18;100.00;100372.09;2573133;55;20622;-68
2021/04/26 01:52:43;;;;;;;7.18;3.97;;;;;;;2.15;100.00;100365.19;2573172;55;20114;-72
2021/04/26 01:55:13;;;;;;;4.90;3.33;;;;;;;2.17;100.00;100367.78;2573279;55;20125;-72
2021/04/26 01:57:43;;;;;;;5.10;3.70;;;;;;;2.15;100.00;100361.72;2573313;55;20128;-68
2021/04/26 02:00:14;;;;;;;4.43;3.53;;;;;;;2.14;100.00;100362.66;2573354;55;20125;-72
2021/04/26 02:02:50;;;;;;;5.68;3.58;;;;;;;2.12;100.00;100365.34;2573120;55;20670;-68
2021/04/26 02:05:20;;;;;;;6.15;3.80;;;;;;;2.11;100.00;100373.34;2573037;55;20150;-71
2021/04/26 02:07:50;;;;;;;4.70;2.78;;;;;;;2.05;100.00;100364.78;2573101;55;20196;-71
2021/04/26 02:10:20;;;;;;;4.32;3.08;;;;;;;2.07;100.00;100368.19;2573104;55;20675;-68
2021/04/26 02:12:48;;;;;;;5.30;3.50;;;;;;;2.05;100.00;100370.03;2573099;55;20139;-69
2021/04/26 02:15:17;;;;;;;4.45;3.12;;;;;;;2.06;100.00;100366.47;2573108;55;20172;-69
2021/04/26 02:17:47;;;;;;;5.10;3.55;;;;;;;2.03;100.00;100371.03;2573039;55;20163;-71
2021/04/26 02:20:18;;;;;;;6.78;3.05;;;;;;;2.06;100.00;100370.91;2573052;55;20550;-71
2021/04/26 02:22:48;;;;;;;5.55;3.40;;;;;;;2.02;100.00;100370.19;2573073;55;20168;-68
2021/04/26 02:25:17;;;;;;;5.53;3.25;;;;;;;1.99;100.00;100370.31;2573036;55;20674;-68
2021/04/26 02:27:45;;;;;;;5.72;3.15;;;;;;;2.00;100.00;100361.47;2573062;55;20165;-71
2021/04/26 02:30:14;;;;;;;4.90;3.40;;;;;;;2.00;100.00;100358.84;2573043;55;20149;-70
2021/04/26 02:32:48;;;;;;;5.93;3.50;;;;;;;2.01;100.00;100355.31;2573232;55;20530;-71
2021/04/26 02:35:24;;;;;;;4.22;3.20;;;;;;;1.99;100.00;100354.53;2573070;55;20708;-68
2021/04/26 02:37:55;;;;;;;4.40;2.67;;;;;;;1.99;100.00;100353.69;2573051;55;20651;-69
2021/04/26 02:40:25;;;;;;;5.40;3.65;;;;;;;2.01;100.00;100352.69;2573314;55;20169;-69
2021/04/26 02:42:55;;;;;;;4.97;3.37;;;;;;;1.97;100.00;100351.09;2573118;55;20144;-68
2021/04/26 02:45:27;;;;;;;5.22;3.40;;;;;;;1.99;100.00;100344.00;2573064;55;20780;-69
2021/04/26 02:47:56;;;;;;;4.68;3.17;;;;;;;2.00;100.00;100348.31;2573040;55;20579;-70
2021/04/26 02:50:28;;;;;;;6.45;3.15;;;;;;;1.98;100.00;100341.44;2573112;55;20640;-70
2021/04/26 02:52:57;;;;;;;5.10;3.25;;;;;;;1.96;100.00;100340.66;2573002;55;20514;-69
2021/04/26 02:55:26;;;;;;;4.05;3.30;;;;;;;1.96;100.00;100336.25;2572989;55;20114;-68
2021/04/26 02:57:55;;;;;;;5.95;4.00;;;;;;;1.95;100.00;100337.16;2572918;55;20151;-68
2021/04/26 03:00:25;;;;;;;4.05;3.22;;;;;;;1.97;100.00;100337.94;2572923;55;20555;-69
2021/04/26 03:02:56;;;;;;;7.78;3.70;;;;;;;1.96;100.00;100338.03;2572898;55;20169;-68
2021/04/26 03:05:26;;;;;;;8.00;3.85;;;;;;;1.97;100.00;100345.00;2572784;55;20144;-69
2021/04/26 03:07:55;;;;;;;5.72;3.20;;;;;;;1.95;100.00;100337.16;2572980;55;20174;-71
2021/04/26 03:10:23;;;;;;;4.78;2.97;;;;;;;1.95;100.00;100331.91;2573091;55;20608;-69
2021/04/26 03:12:52;;;;;;;7.20;4.03;;;;;;;1.99;100.00;100343.16;2572858;55;20180;-68
2021/04/26 03:15:24;;;;;;;7.12;3.80;;;;;;;1.98;100.00;100342.28;2572792;55;20128;-70
2021/04/26 03:17:53;;;;;;;5.05;3.00;;;;;;;1.98;100.00;100342.28;2572956;55;20660;-69
2021/04/26 03:20:22;;;;;;;6.20;3.03;;;;;;;2.02;100.00;100349.13;2572720;55;20172;-71
2021/04/26 03:22:52;;;;;;;5.82;3.05;;;;;;;1.98;100.00;100344.91;2572872;55;20172;-71
2021/04/26 03:25:21;;;;;;;5.28;3.40;;;;;;;1.96;100.00;100344.12;2572770;55;20149;-71
2021/04/26 03:27:52;;;;;;;5.82;3.75;;;;;;;2.01;100.00;100352.69;2572840;55;20572;-71
2021/04/26 03:30:23;;;;;;;4.53;3.20;;;;;;;1.99;100.00;100344.00;2573044;55;20201;-69
2021/04/26 03:32:53;;;;;;;6.93;3.40;;;;;;;2.03;100.00;100361.38;2573669;55;20579;-71
2021/04/26 03:35:23;;;;;;;5.57;3.83;;;;;;;2.02;100.00;100349.13;2573580;55;20667;-68
2021/04/26 03:37:53;;;;;;;5.85;3.50;;;;;;;2.07;100.00;100344.50;2573885;55;20166;-70
2021/04/26 03:40:25;;;;;;;6.85;3.50;;;;;;;2.11;100.00;100347.00;2573785;55;20530;-71
2021/04/26 03:42:54;;;;;;;4.97;3.25;;;;;;;2.04;100.00;100349.91;2573548;55;20129;-71
2021/04/26 03:45:22;;;;;;;6.22;3.62;;;;;;;2.07;100.00;100343.66;2573582;55;20122;-68
2021/04/26 03:48:11;;;;;;;6.47;3.70;;;;;;;2.16;100.00;100355.53;2573683;55;20157;-69
2021/04/26 03:50:39;;;;;;;4.47;3.10;;;;;;;2.17;100.00;100354.59;2573478;55;20143;-71
2021/04/26 03:53:17;;;;;;;6.28;3.30;;;;;;;2.18;100.00;100344.03;2573622;55;20565;-70
2021/04/26 03:55:46;;;;;;;4.35;3.53;;;;;;;2.16;100.00;100356.41;2573535;55;20121;-71
2021/04/26 03:58:14;;;;;;;4.53;3.12;;;;;;;2.14;100.00;100354.75;2573633;55;20121;-69
2021/04/26 04:00:42;;;;;;;4.78;3.30;;;;;;;2.16;100.00;100359.03;2573561;55;20165;-68
2021/04/26 04:03:13;;;;;;;3.50;2.42;;;;;;;2.15;100.00;100357.31;2573471;55;20508;-68
2021/04/26 04:05:42;;;;;;;7.10;3.37;;;;;;;2.17;100.00;100354.59;2573463;55;20622;-68
2021/04/26 04:08:13;;;;;;;5.37;2.85;;;;;;;2.18;100.00;100364.22;2573445;55;20161;-71
2021/04/26 04:10:47;;;;;;;4.07;2.67;;;;;;;2.20;100.00;100362.34;2573650;55;20105;-69
2021/04/26 04:13:18;;;;;;;4.43;2.70;;;;;;;2.21;100.00;100362.28;2573527;55;20125;-68
2021/04/26 04:15:46;;;;;;;4.85;2.40;;;;;;;2.06;100.00;100332.28;2573647;55;20565;-72
2021/04/26 04:18:16;;;;;;;4.68;2.53;;;;;;;2.26;100.00;100364.72;2573699;55;20522;-71
2021/04/26 04:20:44;;;;;;;3.78;2.42;;;;;;;2.25;100.00;100365.66;2573542;55;20117;-69
2021/04/26 04:23:11;;;;;;;5.80;3.40;;;;;;;2.20;100.00;100368.50;2573649;55;20140;-71
2021/04/26 04:25:39;;;;;;;4.15;2.90;;;;;;;2.22;100.00;100365.78;2573380;55;20110;-68
2021/04/26 04:28:07;;;;;;;3.30;2.33;;;;;;;2.24;100.00;100358.69;2573449;55;20134;-71
2021/04/26 04:30:35;;;;;;;3.70;2.33;;;;;;;2.27;100.00;100361.16;2573401;55;20124;-71
2021/04/26 04:33:08;;;;;;;4.37;2.60;;;;;;;2.29;100.00;100356.66;2573481;55;20105;-69
2021/04/26 04:35:39;;;;;;;;;;;;;;;2.45;100.00;100366.50;2573748;55;20122;-71
2021/04/26 04:38:15;;;;;;;3.22;1.90;;;;;;;2.33;100.00;100363.53;2573480;55;20375;-68
2021/04/26 04:40:51;;;;;;;3.65;2.37;;;;;;;2.30;100.00;100366.28;2573253;55;20131;-71
2021/04/26 04:43:20;;;;;;;4.15;2.30;;;;;;;2.30;100.00;100368.91;2573383;55;20118;-71
2021/04/26 04:45:49;;;;;;;3.80;2.35;;;;;;;2.29;100.00;100364.56;2573301;55;20133;-69
2021/04/26 04:48:27;;;;;;;3.55;1.90;;;;;;;2.37;100.00;100372.97;2573491;55;20121;-71
2021/04/26 04:50:55;;;;;;;3.22;2.35;;;;;;;2.29;100.00;100359.31;2573390;55;20140;-68
2021/04/26 04:53:22;;;;;;;2.35;2.08;;;;;;;2.28;100.00;100360.22;2573580;55;20122;-71
2021/04/26 04:55:50;;;;;;;3.62;2.10;;;;;;;2.34;100.00;100367.84;2573497;55;20133;-69
2021/04/26 04:58:17;;;;;;;3.87;2.58;;;;;;;2.31;100.00;100365.38;2573364;55;20162;-68
2021/04/26 05:00:47;;;;;;;3.80;2.60;;;;;;;2.29;100.00;100361.94;2573353;55;20125;-71
2021/04/26 05:03:18;;;;;;;3.87;2.55;;;;;;;2.27;100.00;100371.69;2573317;55;20110;-69
2021/04/26 05:05:59;;;;;;;3.85;2.40;;;;;;;2.33;100.00;100374.06;2573157;55;20517;-71
2021/04/26 05:08:30;;;;;;;5.10;2.25;;;;;;;2.35;100.00;100376.59;2573288;55;20197;-70
2021/04/26 05:11:09;;;;;;;3.50;2.47;;;;;;;2.31;100.00;100369.78;2573348;55;20122;-70
2021/04/26 05:13:38;;;;;;;3.60;2.50;;;;;;;2.33;100.00;100373.19;2573425;55;20662;-68
2021/04/26 05:16:06;;;;;;;3.67;3.08;;;;;;;2.33;100.00;100368.78;2573270;55;20139;-69
2021/04/26 05:18:34;;;;;;;3.97;3.17;;;;;;;2.35;100.00;100366.06;2573436;55;20110;-71
2021/04/26 05:21:01;;;;;;;3.25;2.87;;;;;;;2.35;100.00;100374.81;2573343;55;20140;-71
2021/04/26 05:23:30;;;;;;;3.92;2.80;;;;;;;2.36;100.00;100381.81;2573398;55;20106;-71
2021/04/26 05:25:58;;;;;;;5.10;3.55;;;;;;;2.40;100.00;100381.66;2573210;55;20237;-72
2021/04/26 05:28:26;;;;;;;6.25;3.33;;;;;;;2.42;100.00;100379.81;2573390;55;20098;-72
2021/04/26 05:30:54;;;;;;;6.65;3.12;;;;;;;2.39;100.00;100377.31;2573279;55;20638;-68
2021/04/26 05:33:23;;;;;;;4.35;2.80;;;;;;;2.37;100.00;100375.59;2573070;55;20185;-68
2021/04/26 05:35:52;;;;;;;3.85;3.10;;;;;;;2.43;100.00;100385.00;2572982;55;20140;-69
2021/04/26 05:38:20;;;;;;;2.78;2.28;;;;;;;2.42;100.00;100387.72;2573143;55;20595;-69
2021/04/26 05:40:48;;;;;;;3.58;2.62;;;;;;;2.42;100.00;100388.56;2573114;55;20117;-68
2021/04/26 05:43:17;;;;;;;3.90;3.03;;;;;;;2.40;100.00;100376.37;2573035;55;20513;-72
2021/04/26 05:45:45;;;;;;;3.12;2.47;;;;;;;2.46;100.00;100384.00;2573073;55;20118;-72
2021/04/26 05:48:13;;;;;;;5.53;3.60;;;;;;;2.41;100.00;100386.84;2573179;55;20139;-71
2021/04/26 05:50:41;;;;;;;4.32;2.70;;;;;;;2.37;100.00;100386.13;2573047;55;20121;-68
2021/04/26 05:53:08;;;;;;;4.25;3.25;;;;;;;2.39;100.00;100387.84;2572918;55;20114;-70
2021/04/26 05:55:36;;;;;;;3.67;2.85;;;;;;;2.39;100.00;100387.84;2573186;55;20118;-67
2021/04/26 05:58:03;;;;;;;4.28;3.30;;;;;;;2.40;100.00;100389.53;2573207;55;20153;-71
2021/04/26 06:00:31;;;;;;;4.55;3.40;;;;;;;2.46;100.00;100395.41;2573291;55;20532;-71
2021/04/26 06:02:59;;;;;;;5.37;3.70;;;;;;;2.47;100.00;100393.63;2573066;55;20671;-70
2021/04/26 06:05:26;;;;;;;5.20;3.80;;;;;;;2.50;100.00;100393.47;2573110;55;20516;-68
2021/04/26 06:07:55;;;;;;;8.13;4.20;;;;;;;2.50;100.00;100398.72;2573121;55;20113;-72
2021/04/26 06:10:22;;;;;;;6.25;4.10;;;;;;;2.52;100.00;100388.12;2573065;55;20136;-72
2021/04/26 06:12:49;;;;;;;5.30;3.65;;;;;;;2.55;100.00;100387.97;2573278;55;20595;-72
2021/04/26 06:15:17;;;;;;;5.50;4.25;;;;;;;2.59;100.00;100392.19;2572967;55;20671;-69
2021/04/26 06:17:44;;;;;;;4.30;3.45;;;;;;;2.61;100.00;100388.56;2572873;55;20691;-71
2021/04/26 06:20:12;;;;;;;7.07;4.28;;;;;;;2.67;100.00;100397.09;2573270;55;20127;-69
2021/04/26 06:22:39;;;;;;;4.60;3.75;;;;;;;2.68;100.00;100390.91;2573511;55;20627;-69
2021/04/26 06:25:09;;;;;;;5.85;4.10;;;;;;;2.67;100.00;100390.06;2573240;55;20557;-71
2021/04/26 06:27:36;;;;;;;6.43;4.00;;;;;;;2.71;100.00;100396.87;2573116;55;20169;-71
2021/04/26 06:30:05;;;;;;;5.22;4.28;;;;;;;2.69;100.00;100392.59;2572815;55;20169;-71
2021/04/26 06:32:32;;;;;;;6.00;4.22;;;;;;;2.73;100.00;100397.66;2573061;55;20170;-71
2021/04/26 06:35:00;;;;;;;5.75;4.68;;;;;;;2.73;100.00;100391.53;2572499;55;20163;-69
2021/04/26 06:37:27;;;;;;;5.03;4.07;;;;;;;2.83;100.00;100390.19;2573321;55;20139;-71
2021/04/26 06:39:56;;;;;;;7.10;4.45;;;;;;;2.70;100.00;100376.72;2573419;55;20136;-68
2021/04/26 06:42:24;;;;;;;5.45;4.32;;;;;;;2.91;100.00;100393.31;2573344;55;20160;-69
2021/04/26 06:44:51;;;;;;;9.00;5.45;;;;;;;2.91;100.00;100408.25;2572943;55;20164;-71
2021/04/26 06:47:19;;;;;;;6.45;5.07;;;;;;;2.88;100.00;100406.59;2572923;55;20129;-71
2021/04/26 06:49:46;;;;;;;6.72;5.15;;;;;;;2.88;100.00;100406.59;2573171;55;20121;-69
2021/04/26 06:52:13;;;;;;;7.72;4.90;;;;;;;2.89;100.00;100400.41;2573019;55;20161;-69
2021/04/26 06:54:41;;;;;;;8.00;5.40;;;;;;;2.91;100.00;100405.63;2573020;55;20754;-71
2021/04/26 06:57:08;;;;;;;10.48;6.15;;;;;;;2.94;100.00;100410.72;2572955;55;20165;-71
2021/04/26 06:59:36;;;;;;;8.60;5.40;;;;;;;2.96;100.00;100413.31;2573011;55;20165;-69
2021/04/26 07:02:04;;;;;;;8.65;5.45;;;;;;;2.98;100.00;100408.81;2573069;55;20570;-71
2021/04/26 07:04:31;;;;;;;6.60;5.10;;;;;;;3.03;100.00;100417.34;2572932;55;20153;-69
2021/04/26 07:06:58;;;;;;;8.32;5.35;;;;;;;3.06;100.00;100414.56;2573713;55;20697;-72
2021/04/26 07:09:26;;;;;;;7.60;5.03;;;;;;;3.09;100.00;100418.84;2573908;55;20146;-69
2021/04/26 07:11:54;;;;;;;8.52;5.30;;;;;;;3.14;100.00;100424.72;2573836;55;20177;-71
2021/04/26 07:14:21;;;;;;;6.30;4.65;;;;;;;3.12;100.00;100419.53;2573758;55;20157;-69
2021/04/26 07:16:50;;;;;;;6.45;4.62;;;;;;;3.14;100.00;100416.81;2573705;55;20667;-69
2021/04/26 07:19:17;;;;;;;7.47;4.57;;;;;;;3.17;100.00;100425.44;2573921;55;20169;-71
2021/04/26 07:21:44;;;;;;;6.80;4.37;;;;;;;3.20;100.00;100425.28;2573955;55;20117;-70
2021/04/26 07:24:12;;;;;;;5.72;4.45;;;;;;;3.18;100.00;100421.88;2573820;55;20140;-71
2021/04/26 07:26:39;;;;;;;8.80;4.85;;;;;;;3.28;100.00;100432.84;2573691;55;20130;-69
2021/04/26 07:29:06;;;;;;;7.70;5.10;;;;;;;3.32;100.00;100439.66;2573737;55;20129;-69
2021/04/26 07:31:35;;;;;;;7.00;4.57;;;;;;;3.35;100.00;100438.66;2573718;55;20144;-71
2021/04/26 07:34:03;;;;;;;8.30;5.43;;;;;;;3.38;100.00;100435.00;2573700;55;20133;-71
2021/04/26 07:36:31;;;;;;;7.75;5.43;;;;;;;3.40;100.00;100439.25;2573890;55;20121;-71
2021/04/26 07:38:58;;;;;;;6.82;5.05;;;;;;;3.40;100.00;100431.34;2573816;55;20139;-72
2021/04/26 07:41:26;;;;;;;7.75;5.57;;;;;;;3.45;100.00;100434.63;2573704;55;20169;-69
2021/04/26 07:43:53;;;;;;;7.82;5.45;;;;;;;3.48;100.00;100437.09;2573642;55;20153;-71
2021/04/26 07:46:20;;;;;;;9.32;6.00;;;;;;;3.53;100.00;100441.31;2573803;55;20615;-69
2021/04/26 07:48:48;;;;;;;9.15;5.37;;;;;;;3.60;100.00;100448.84;2573668;55;20158;-69
2021/04/26 07:51:16;;;;;;;8.02;5.25;;;;;;;3.62;100.00;100449.59;2573753;55;20177;-71
2021/04/26 07:53:44;;;;;;;6.68;4.93;;;;;;;3.63;100.00;100450.47;2573816;55;20161;-71
2021/04/26 07:56:11;;;;;;;10.10;6.10;;;;;;;3.65;100.00;100445.97;2573736;55;20128;-70
2021/04/26 07:58:38;;;;;;;6.75;5.12;;;;;;;3.63;100.00;100450.47;2573688;55;20165;-72
2021/04/26 08:01:26;;;;;;;12.82;5.60;;;;;;;3.65;100.00;100459.16;2562570;55;20110;-69
2021/04/26 08:04:14;;;;;;;11.05;7.70;;;;;;;3.66;100.00;100450.31;2558659;55;20118;-69
2021/04/26 08:07:02;;;;;;;8.45;5.60;;;;;;;3.69;100.00;100457.22;2558858;55;20484;-69
2021/04/26 08:09:50;;;;;;;9.48;6.10;;;;;;;3.66;100.00;100465.28;2558726;55;20128;-69
2021/04/26 08:12:38;;;;;;;13.65;6.00;;;;;;;3.66;100.00;100463.50;2555599;55;20114;-69
2021/04/26 08:15:26;;;;;;;16.15;5.90;;;;;;;3.68;100.00;100466.06;2558841;55;20171;-69
2021/04/26 08:18:14;;;;;;;15.98;6.40;;;;;;;3.65;100.00;100469.72;2562169;55;20174;-71
2021/04/26 08:21:02;;;;;;;12.88;6.35;;;;;;;3.67;100.00;100473.12;2558699;55;20109;-69
2021/04/26 08:23:50;;;;;;;10.23;5.97;;;;;;;3.69;100.00;100471.25;2555147;55;20117;-69
2021/04/26 08:26:38;;;;;;;13.27;6.20;;;;;;;3.69;100.00;100473.88;2565487;55;20165;-69
2021/04/26 08:29:26;;;;;;;11.70;6.15;;;;;;;3.70;100.00;100466.84;2562242;55;20139;-71
2021/04/26 08:32:14;;;;;;;8.30;5.80;;;;;;;3.61;100.00;100463.72;2558870;55;20113;-69
2021/04/26 08:35:01;;;;;;;11.48;6.03;;;;;;;3.79;100.00;100476.06;2555310;55;20467;-71
2021/04/26 08:37:49;;;;;;;7.28;4.32;;;;;;;3.81;100.00;100479.47;2562307;55;20660;-72
2021/04/26 08:40:38;;;;;;;8.00;4.30;;;;;;;3.89;100.00;100483.44;2564446;55;20504;-71
2021/04/26 08:43:26;;;;;;;6.82;3.28;;;;;;;3.90;100.00;100492.22;2558665;55;20133;-71
2021/04/26 08:46:14;;;;;;;5.95;3.10;;;;;;;3.90;100.00;100494.84;2558573;55;20139;-69
2021/04/26 08:49:03;;;;;;;5.47;3.12;;;;;;;3.93;100.00;100494.72;2561937;55;20110;-69
2021/04/26 08:51:50;;;;;;;6.47;3.45;;;;;;;3.93;100.00;100494.72;2562026;55;20114;-69
2021/04/26 08:54:38;;;;;;;5.47;2.75;;;;;;;3.95;100.00;100494.63;2558520;55;20109;-69
2021/04/26 08:57:27;;;;;;;5.82;3.17;;;;;;;3.97;100.00;100506.81;2558685;55;20110;-71
2021/04/26 09:00:16;;;;;;;5.85;3.25;;;;;;;3.97;100.00;100500.69;2555017;55;20615;-71
2021/04/26 09:03:06;;;;;;;5.10;3.50;;;;;;;3.97;100.00;100501.53;2561814;55;20139;-69
2021/04/26 09:05:36;;;;;;;6.25;3.33;;;;;;;3.96;100.00;100510.38;2573739;55;20204;-71
2021/04/26 09:08:06;;;;;;;5.30;3.20;;;;;;;3.86;100.00;100503.88;2573631;55;20109;-71
2021/04/26 09:10:39;;;;;;;5.87;3.05;;;;;;;3.90;100.00;100518.59;2573582;55;20117;-71
2021/04/26 09:13:39;;;;;;;8.32;3.95;;;;;;;3.99;100.00;100512.84;2568456;55;20140;-69
2021/04/26 09:16:09;;;;;;;5.60;3.00;;;;;;;3.93;100.00;100517.59;2561670;56;20137;-69
2021/04/26 09:18:56;;;;;;;10.55;3.90;;;;;;;3.97;100.00;100512.09;2571118;55;20167;-68
2021/04/26 09:21:27;;;;;;;5.10;4.10;;;;;;;3.95;100.00;100511.31;2568770;55;20599;-69
2021/04/26 09:24:17;;;;;;;8.75;5.10;;;;;;;3.99;100.00;100515.50;2573378;55;20159;-68
2021/04/26 09:26:47;;;;;;;8.13;3.95;;;;;;;3.96;100.00;100520.94;2573317;55;20130;-69
2021/04/26 09:29:24;;;;;;;5.70;4.10;;;;;;;3.99;100.00;100519.94;2567980;55;20102;-69
2021/04/26 09:32:07;;;;;;;6.50;3.40;;;;;;;4.07;100.00;100524.81;2573354;55;20102;-70
2021/04/26 09:34:37;;;;;;;4.93;3.40;;;;;;;3.96;100.00;100515.66;2573311;55;20113;-69
2021/04/26 09:37:12;;;;;;;5.43;3.15;;;;;;;4.06;100.00;100507.28;2573210;55;20117;-69
2021/04/26 09:39:56;;;;;;;5.50;3.35;;;;;;;4.16;100.00;100516.44;2573417;55;20504;-71
2021/04/26 09:42:43;;;;;;;5.87;3.15;;;;;;;4.25;100.00;100529.16;2573544;55;20110;-69
2021/04/26 09:45:24;;;;;;;7.60;4.22;;;;;;;4.23;100.00;100527.53;2573438;55;20118;-71
2021/04/26 09:48:08;;;;;;;6.10;3.75;;;;;;;4.22;100.00;100531.09;2573123;55;20122;-71
2021/04/26 09:50:49;;;;;;;6.72;3.72;;;;;;;4.17;100.00;100531.34;2573243;55;20105;-71
2021/04/26 09:53:16;;;;;;;8.20;4.40;;;;;;;4.12;100.00;100533.38;2573669;55;20106;-69
2021/04/26 09:55:44;;;;;;;6.90;4.22;;;;;;;4.13;100.00;100535.94;2568355;55;20521;-71
2021/04/26 09:58:13;;;;;;;6.12;4.43;;;;;;;4.07;100.00;100548.59;2573234;55;20117;-69
2021/04/26 10:00:43;;;;;;;6.40;4.12;;;;;;;4.09;100.00;100552.00;2573309;55;20118;-69
2021/04/26 10:03:12;;;;;;;4.50;3.55;;;;;;;4.09;100.00;100547.59;2573305;55;20106;-71
2021/04/26 10:05:43;;;;;;;6.40;4.25;;;;;;;4.12;100.00;100551.88;2573360;55;20685;-71
2021/04/26 10:08:12;;;;;;;5.60;3.65;;;;;;;3.98;100.00;100528.81;2573124;55;20142;-69
2021/04/26 10:10:40;;;;;;;3.47;2.80;;;;;;;4.19;100.00;100566.44;2573241;55;20127;-71
2021/04/26 10:13:07;;;;;;;4.87;2.80;;;;;;;4.13;100.00;100558.84;2573265;55;20110;-71
2021/04/26 10:15:35;;;;;;;4.25;3.17;;;;;;;4.04;100.00;100550.47;2573325;55;20163;-69
2021/04/26 10:18:07;;;;;;;4.55;2.97;;;;;;;3.99;100.00;100562.19;2573167;55;20226;-70
2021/04/26 10:20:36;;;;;;;7.20;3.58;;;;;;;4.01;100.00;100569.09;2573229;55;20163;-71
2021/04/26 10:23:05;;;;;;;5.60;2.83;;;;;;;3.94;100.00;100549.22;2573281;55;20124;-69
2021/04/26 10:25:40;;;;;;;4.95;3.45;;;;;;;4.07;100.00;100569.72;2573312;55;20099;-69
2021/04/26 10:28:30;;;;;;;8.85;3.72;;;;;;;4.14;100.00;100577.25;2573186;55;20229;-70
2021/04/26 10:31:00;;;;;;;7.75;3.55;;;;;;;4.09;100.00;100567.84;2573152;55;20097;-71
2021/04/26 10:34:03;;;;;;;6.62;3.80;;;;;;;4.14;100.00;100579.03;2573289;55;20532;-69
2021/04/26 10:36:46;;;;;;;7.07;4.50;;;;;;;4.14;100.00;100576.41;2573115;55;20679;-69
2021/04/26 10:39:16;;;;;;;5.45;3.53;;;;;;;4.04;100.00;100582.16;2572825;55;20114;-70
2021/04/26 10:42:06;;;;;;;5.07;3.60;;;;;;;4.13;100.00;100582.63;2573104;55;20567;-69
2021/04/26 10:44:52;;;;;;;3.62;2.95;;;;;;;4.16;100.00;100585.97;2573176;55;20106;-69
2021/04/26 10:47:25;;;;;;;5.45;3.33;;;;;;;4.15;100.00;100584.22;2573255;55;20117;-71
2021/04/26 10:50:33;;;;;;;6.25;3.58;;;;;;;4.22;100.00;100586.56;2573292;55;20603;-71
2021/04/26 10:53:02;;;;;;;9.15;4.18;;;;;;;4.14;100.00;100586.97;2573120;55;20127;-69
2021/04/26 10:55:52;;;;;;;9.57;4.82;;;;;;;4.16;100.00;100582.47;2573124;55;20165;-69
2021/04/26 10:58:30;;;;;;;9.32;4.80;;;;;;;4.01;100.00;100586.72;2572281;55;20156;-69
2021/04/26 11:00:59;;;;;;;10.77;5.62;;;;;;;3.94;100.00;100591.47;2573165;55;20607;-71
2021/04/26 11:03:42;;;;;;;7.43;5.12;;;;;;;3.91;100.00;100591.62;2568016;55;20141;-69
2021/04/26 11:06:26;;;;;;;7.70;4.65;;;;;;;3.85;100.00;100592.75;2573134;55;20122;-69
2021/04/26 11:11:53;;;;;;;7.18;4.75;;;;;;;3.79;100.00;100592.19;2572228;55;20180;-69
2021/04/26 11:14:26;;;;;;;9.15;4.80;;;;;;;3.87;100.00;100600.59;2573213;55;20131;-71
2021/04/26 11:17:06;;;;;;;7.87;4.28;;;;;;;3.92;100.00;100593.31;2572972;55;20675;-71
2021/04/26 11:20:08;;;;;;;8.98;5.15;;;;;;;3.97;100.00;100595.75;2573181;55;20114;-69
2021/04/26 11:22:36;;;;;;;7.78;5.15;;;;;;;3.90;100.00;100601.31;2573039;55;20133;-70
2021/04/26 11:25:06;;;;;;;7.62;4.78;;;;;;;3.82;100.00;100592.06;2572958;55;20118;-69
2021/04/26 11:27:36;;;;;;;6.95;4.57;;;;;;;3.86;100.00;100605.03;2573130;55;20114;-71
2021/04/26 11:30:26;;;;;;;8.00;4.50;;;;;;;3.95;100.00;100605.50;2573203;55;20653;-71
2021/04/26 11:33:05;;;;;;;5.78;4.70;;;;;;;3.84;100.00;100606.87;2567846;55;20250;-69
2021/04/26 11:35:34;;;;;;;6.75;4.07;;;;;;;3.86;100.00;100610.31;2573044;55;20117;-69
2021/04/26 11:38:03;;;;;;;9.15;5.60;;;;;;;3.83;100.00;100602.53;2572917;55;20233;-71
2021/04/26 11:40:35;;;;;;;9.88;5.05;;;;;;;3.88;100.00;100607.59;2573162;55;20121;-69
2021/04/26 11:43:04;;;;;;;;;;;;;;;4.01;100.00;100608.72;2573107;55;20172;-69
2021/04/26 11:45:31;;;;;;;8.10;4.87;;;;;;;3.96;100.00;100605.44;2572968;55;19997;-69
2021/04/26 11:47:59;;;;;;;7.95;4.10;;;;;;;3.96;100.00;100610.72;2572844;55;20114;-71
2021/04/26 11:50:26;;;;;;;7.70;4.50;;;;;;;4.02;100.00;100615.69;2572870;55;20132;-70
2021/04/26 11:52:54;;;;;;;8.82;4.57;;;;;;;3.94;100.00;100609.94;2573736;55;20140;-69